createdAt,value
2022-08-22T00:00:59.077Z,21.90
2022-08-22T00:02:53.684Z,24.80
2022-08-22T00:02:55.263Z,22.40
2022-08-22T00:03:01.921Z,25.10
2022-08-22T00:03:02.492Z,23.00
2022-08-22T00:03:31.679Z,21.90
2022-08-22T00:06:20.332Z,21.90
2022-08-22T00:08:53.486Z,21.80
2022-08-22T00:11:38.410Z,21.80
2022-08-22T00:14:14.199Z,21.80
2022-08-22T00:16:46.670Z,21.80
2022-08-22T00:19:19.273Z,21.80
2022-08-22T00:22:04.298Z,21.70
2022-08-22T00:24:34.532Z,21.70
2022-08-22T00:27:14.983Z,21.70
2022-08-22T00:29:47.158Z,21.70
2022-08-22T00:32:20.042Z,21.60
2022-08-22T00:34:46.637Z,21.70
2022-08-22T00:37:32.124Z,21.60
2022-08-22T00:39:58.707Z,21.60
2022-08-22T00:42:44.339Z,21.60
2022-08-22T00:45:11.286Z,21.60
2022-08-22T00:47:57.404Z,21.60
2022-08-22T00:50:40.035Z,21.50
2022-08-22T00:53:25.585Z,21.50
2022-08-22T00:56:06.409Z,21.50
2022-08-22T00:58:55.893Z,21.40
2022-08-22T01:01:28.464Z,21.40
2022-08-22T01:04:05.758Z,21.40
2022-08-22T01:06:49.808Z,21.40
2022-08-22T01:09:25.648Z,21.40
2022-08-22T01:11:58.689Z,21.30
2022-08-22T01:14:34.730Z,21.30
2022-08-22T01:17:14.629Z,21.30
2022-08-22T01:19:47.191Z,21.30
2022-08-22T01:22:46.474Z,21.20
2022-08-22T01:25:21.447Z,21.20
2022-08-22T01:28:11.440Z,21.20
2022-08-22T01:30:44.349Z,21.10
2022-08-22T01:33:23.532Z,21.10
2022-08-22T01:36:08.755Z,21.00
2022-08-22T01:38:35.358Z,21.00
2022-08-22T01:41:12.056Z,20.90
2022-08-22T01:44:00.532Z,20.90
2022-08-22T01:46:31.241Z,20.80
2022-08-22T01:49:04.976Z,20.80
2022-08-22T01:51:31.560Z,20.80
2022-08-22T01:54:02.389Z,20.80
2022-08-22T01:56:32.968Z,20.80
2022-08-22T01:59:05.288Z,20.70
2022-08-22T02:01:43.786Z,20.70
2022-08-22T02:04:28.778Z,20.60
2022-08-22T02:07:17.507Z,20.60
2022-08-22T02:10:02.489Z,20.60
2022-08-22T02:12:41.908Z,20.60
2022-08-22T02:15:14.628Z,20.60
2022-08-22T02:18:04.499Z,20.50
2022-08-22T02:20:31.055Z,20.50
2022-08-22T02:23:04.181Z,20.40
2022-08-22T02:25:33.266Z,20.40
2022-08-22T02:28:00.069Z,20.30
2022-08-22T02:30:47.235Z,20.30
2022-08-22T02:33:29.090Z,20.30
2022-08-22T02:35:59.919Z,20.20
2022-08-22T02:38:29.535Z,20.20
2022-08-22T02:41:21.315Z,20.10
2022-08-22T02:43:51.548Z,20.10
2022-08-22T02:46:36.681Z,20.00
2022-08-22T02:49:06.482Z,20.00
2022-08-22T02:51:45.294Z,19.90
2022-08-22T02:54:14.962Z,19.90
2022-08-22T02:56:46.384Z,19.90
2022-08-22T02:59:12.983Z,19.90
2022-08-22T03:01:41.781Z,19.90
2022-08-22T03:04:21.332Z,19.90
2022-08-22T03:07:14.039Z,19.80
2022-08-22T03:09:40.745Z,19.80
2022-08-22T03:12:15.168Z,19.80
2022-08-22T03:14:47.182Z,19.80
2022-08-22T03:17:17.107Z,19.70
2022-08-22T03:19:53.123Z,19.70
2022-08-22T03:22:23.421Z,19.70
2022-08-22T03:24:54.452Z,19.60
2022-08-22T03:27:33.161Z,19.60
2022-08-22T03:30:17.119Z,19.60
2022-08-22T03:32:50.130Z,19.60
2022-08-22T03:35:42.192Z,19.60
2022-08-22T03:38:14.649Z,19.50
2022-08-22T03:41:17.695Z,19.50
2022-08-22T03:44:03.070Z,19.50
2022-08-22T03:46:29.719Z,19.50
2022-08-22T03:48:56.323Z,19.50
2022-08-22T03:51:38.121Z,19.50
2022-08-22T03:54:05.483Z,19.40
2022-08-22T03:56:47.255Z,19.40
2022-08-22T03:59:19.391Z,19.40
2022-08-22T04:02:33.414Z,19.40
2022-08-22T04:05:03.929Z,19.30
2022-08-22T04:07:35.247Z,19.40
2022-08-22T04:10:01.850Z,19.30
2022-08-22T04:12:46.969Z,19.30
2022-08-22T04:15:33.573Z,19.30
2022-08-22T04:18:09.539Z,19.30
2022-08-22T04:20:54.917Z,19.20
2022-08-22T04:23:47.969Z,19.20
2022-08-22T04:26:21.202Z,19.20
2022-08-22T04:28:50.873Z,19.20
2022-08-22T04:31:29.651Z,19.10
2022-08-22T04:33:59.198Z,19.10
2022-08-22T04:36:27.218Z,19.10
2022-08-22T04:38:58.019Z,19.10
2022-08-22T04:41:26.325Z,19.10
2022-08-22T04:44:04.534Z,19.10
2022-08-22T04:46:54.872Z,19.10
2022-08-22T04:49:26.549Z,19.00
2022-08-22T04:52:05.287Z,19.00
2022-08-22T04:54:44.119Z,19.00
2022-08-22T04:57:19.873Z,19.00
2022-08-22T04:59:47.267Z,19.00
2022-08-22T05:02:20.567Z,19.00
2022-08-22T05:04:50.434Z,19.00
2022-08-22T05:07:19.440Z,19.00
2022-08-22T05:09:51.474Z,19.00
2022-08-22T05:12:23.271Z,19.00
2022-08-22T05:14:55.928Z,19.00
2022-08-22T05:17:24.451Z,19.00
2022-08-22T05:19:53.609Z,19.00
2022-08-22T05:22:23.840Z,19.10
2022-08-22T05:24:53.574Z,19.10
2022-08-22T05:27:25.799Z,19.10
2022-08-22T05:29:54.546Z,19.10
2022-08-22T05:32:27.123Z,19.10
2022-08-22T05:34:55.702Z,19.10
2022-08-22T05:37:37.501Z,19.10
2022-08-22T05:40:04.603Z,19.20
2022-08-22T05:42:33.732Z,19.20
2022-08-22T05:45:01.870Z,19.10
2022-08-22T05:47:49.327Z,19.20
2022-08-22T05:50:18.415Z,19.20
2022-08-22T05:52:45.202Z,19.20
2022-08-22T05:55:11.802Z,19.30
2022-08-22T05:57:41.717Z,19.30
2022-08-22T06:00:11.292Z,19.30
2022-08-22T06:02:52.377Z,19.40
2022-08-22T06:05:23.659Z,19.40
2022-08-22T06:07:50.935Z,19.50
2022-08-22T06:10:22.407Z,19.50
2022-08-22T06:13:05.396Z,19.50
2022-08-22T06:15:47.796Z,19.60
2022-08-22T06:18:16.855Z,19.60
2022-08-22T06:20:45.984Z,19.70
2022-08-22T06:23:15.769Z,19.70
2022-08-22T06:25:44.270Z,19.70
2022-08-22T06:28:13.106Z,19.70
2022-08-22T06:30:39.915Z,19.80
2022-08-22T06:33:12.385Z,19.80
2022-08-22T06:35:58.145Z,19.80
2022-08-22T06:38:28.387Z,19.80
2022-08-22T06:40:55.994Z,19.80
2022-08-22T06:43:23.528Z,19.90
2022-08-22T06:45:50.654Z,19.90
2022-08-22T06:48:19.188Z,19.90
2022-08-22T06:50:49.040Z,20.00
2022-08-22T06:53:15.638Z,20.00
2022-08-22T06:55:46.030Z,20.10
2022-08-22T06:58:17.789Z,20.10
2022-08-22T07:00:51.096Z,20.10
2022-08-22T07:03:35.149Z,20.20
2022-08-22T07:06:02.398Z,20.30
2022-08-22T07:08:30.473Z,20.30
2022-08-22T07:10:57.863Z,20.30
2022-08-22T07:13:26.314Z,20.30
2022-08-22T07:15:56.222Z,20.30
2022-08-22T07:18:25.558Z,20.40
2022-08-22T07:20:55.204Z,20.40
2022-08-22T07:23:24.839Z,20.40
2022-08-22T07:26:09.934Z,20.40
2022-08-22T07:28:51.469Z,20.50
2022-08-22T07:31:31.791Z,20.60
2022-08-22T07:34:17.397Z,20.60
2022-08-22T07:36:47.189Z,20.60
2022-08-22T07:39:23.856Z,20.70
2022-08-22T07:41:50.896Z,20.80
2022-08-22T07:44:20.181Z,20.80
2022-08-22T07:46:52.536Z,20.90
2022-08-22T07:49:22.167Z,20.90
2022-08-22T07:51:54.350Z,20.90
2022-08-22T07:54:27.174Z,21.00
2022-08-22T07:57:02.443Z,21.10
2022-08-22T07:59:30.750Z,21.10
2022-08-22T08:01:59.843Z,21.10
2022-08-22T08:04:32.098Z,21.20
2022-08-22T08:07:00.826Z,21.30
2022-08-22T08:09:28.996Z,21.40
2022-08-22T08:11:56.064Z,21.40
2022-08-22T08:14:23.471Z,21.40
2022-08-22T08:17:04.567Z,21.50
2022-08-22T08:19:33.463Z,21.50
2022-08-22T08:22:00.205Z,21.60
2022-08-22T08:24:40.042Z,21.70
2022-08-22T08:27:31.079Z,21.80
2022-08-22T08:29:59.570Z,21.80
2022-08-22T08:32:31.136Z,21.90
2022-08-22T08:34:59.348Z,22.00
2022-08-22T08:37:33.345Z,22.00
2022-08-22T08:40:02.684Z,22.00
2022-08-22T08:42:55.078Z,22.10
2022-08-22T08:45:21.672Z,22.20
2022-08-22T08:48:08.579Z,22.30
2022-08-22T08:50:44.350Z,22.40
2022-08-22T08:53:29.435Z,22.50
2022-08-22T08:56:01.042Z,22.60
2022-08-22T08:58:46.572Z,22.70
2022-08-22T09:01:21.170Z,22.70
2022-08-22T09:04:15.251Z,22.80
2022-08-22T09:06:42.423Z,22.80
2022-08-22T09:09:29.649Z,23.00
2022-08-22T09:12:01.589Z,23.10
2022-08-22T09:14:28.224Z,23.20
2022-08-22T09:17:15.159Z,23.20
2022-08-22T09:19:48.003Z,23.30
2022-08-22T09:22:50.649Z,23.40
2022-08-22T09:25:20.526Z,23.50
2022-08-22T09:28:02.897Z,23.60
2022-08-22T09:30:43.100Z,23.70
2022-08-22T09:33:17.623Z,23.80
2022-08-22T09:35:59.039Z,23.80
2022-08-22T09:38:47.769Z,23.90
2022-08-22T09:41:21.422Z,24.10
2022-08-22T09:43:51.438Z,24.10
2022-08-22T09:46:31.443Z,24.20
2022-08-22T09:49:01.573Z,24.30
2022-08-22T09:51:38.407Z,24.40
2022-08-22T09:54:10.288Z,24.50
2022-08-22T09:56:39.389Z,24.60
2022-08-22T09:59:16.514Z,24.60
2022-08-22T10:01:48.196Z,24.70
2022-08-22T10:04:48.655Z,24.80
2022-08-22T10:07:24.314Z,24.80
2022-08-22T10:10:04.035Z,24.80
2022-08-22T10:12:36.249Z,24.70
2022-08-22T10:15:06.934Z,24.60
2022-08-22T10:17:41.116Z,24.60
2022-08-22T10:20:21.228Z,24.50
2022-08-22T10:22:50.993Z,24.40
2022-08-22T10:25:22.597Z,24.40
2022-08-22T10:27:52.563Z,24.40
2022-08-22T10:30:19.319Z,24.30
2022-08-22T10:32:55.019Z,24.30
2022-08-22T10:35:44.866Z,24.30
2022-08-22T10:38:17.598Z,24.20
2022-08-22T10:40:48.311Z,24.20
2022-08-22T10:43:19.633Z,24.20
2022-08-22T10:45:47.845Z,24.20
2022-08-22T10:48:18.409Z,24.20
2022-08-22T10:50:48.013Z,24.20
2022-08-22T10:53:30.187Z,24.20
2022-08-22T10:56:07.069Z,24.20
2022-08-22T10:58:38.549Z,24.20
2022-08-22T11:01:37.677Z,24.20
2022-08-22T11:04:06.818Z,24.20
2022-08-22T11:06:44.734Z,24.20
2022-08-22T11:09:14.503Z,24.20
2022-08-22T11:11:43.675Z,24.20
2022-08-22T11:14:11.729Z,24.30
2022-08-22T11:16:42.020Z,24.20
2022-08-22T11:19:20.749Z,24.30
2022-08-22T11:22:11.844Z,24.30
2022-08-22T11:24:56.794Z,24.30
2022-08-22T11:27:35.309Z,24.40
2022-08-22T11:30:09.862Z,24.70
2022-08-22T11:32:39.489Z,25.10
2022-08-22T11:35:15.226Z,25.50
2022-08-22T11:37:59.889Z,25.60
2022-08-22T11:40:45.103Z,25.60
2022-08-22T11:43:32.527Z,25.60
2022-08-22T11:46:01.957Z,25.60
2022-08-22T11:48:28.797Z,25.60
2022-08-22T11:51:14.141Z,25.90
2022-08-22T11:53:50.083Z,26.10
2022-08-22T11:56:29.368Z,26.10
2022-08-22T11:59:00.227Z,26.00
2022-08-22T12:01:38.586Z,25.90
2022-08-22T12:04:30.651Z,25.80
2022-08-22T12:06:57.290Z,25.70
2022-08-22T12:09:27.229Z,25.60
2022-08-22T12:11:59.591Z,25.60
2022-08-22T12:14:27.236Z,25.50
2022-08-22T12:17:11.785Z,25.60
2022-08-22T12:20:16.612Z,25.90
2022-08-22T12:23:01.061Z,26.30
2022-08-22T12:25:46.570Z,26.80
2022-08-22T12:28:45.839Z,27.20
2022-08-22T12:31:31.743Z,27.20
2022-08-22T12:34:01.389Z,27.20
2022-08-22T12:36:37.334Z,27.30
2022-08-22T12:39:16.254Z,27.70
2022-08-22T12:41:46.842Z,28.10
2022-08-22T12:44:17.793Z,28.30
2022-08-22T12:46:55.896Z,28.50
2022-08-22T12:49:22.700Z,28.50
2022-08-22T12:52:04.809Z,28.40
2022-08-22T12:54:48.374Z,28.10
2022-08-22T12:57:32.692Z,27.90
2022-08-22T13:00:11.691Z,27.80
2022-08-22T13:02:39.716Z,28.00
2022-08-22T13:05:13.742Z,28.30
2022-08-22T13:07:54.983Z,28.50
2022-08-22T13:10:31.069Z,28.80
2022-08-22T13:12:59.046Z,29.00
2022-08-22T13:15:25.812Z,29.20
2022-08-22T13:17:53.077Z,28.90
2022-08-22T13:20:22.714Z,28.70
2022-08-22T13:22:54.485Z,28.50
2022-08-22T13:25:25.534Z,28.30
2022-08-22T13:28:03.728Z,28.10
2022-08-22T13:30:30.960Z,28.10
2022-08-22T13:33:08.544Z,28.00
2022-08-22T13:35:38.326Z,28.20
2022-08-22T13:38:23.808Z,28.40
2022-08-22T13:40:54.215Z,28.40
2022-08-22T13:43:22.477Z,28.30
2022-08-22T13:45:54.455Z,28.10
2022-08-22T13:48:22.496Z,28.00
2022-08-22T13:51:08.163Z,28.20
2022-08-22T13:53:43.250Z,28.50
2022-08-22T13:56:21.437Z,28.80
2022-08-22T13:58:51.525Z,29.00
2022-08-22T14:01:18.775Z,29.30
2022-08-22T14:03:54.203Z,29.40
2022-08-22T14:06:37.373Z,29.40
2022-08-22T14:09:34.276Z,29.30
2022-08-22T14:12:06.680Z,29.40
2022-08-22T14:14:40.447Z,29.60
2022-08-22T14:17:07.774Z,29.80
2022-08-22T14:19:53.030Z,30.00
2022-08-22T14:22:32.527Z,30.10
2022-08-22T14:25:05.058Z,30.30
2022-08-22T14:27:34.180Z,30.30
2022-08-22T14:30:21.169Z,30.50
2022-08-22T14:32:52.784Z,30.50
2022-08-22T14:35:37.434Z,30.60
2022-08-22T14:38:17.153Z,30.70
2022-08-22T14:40:44.820Z,30.50
2022-08-22T14:43:22.193Z,30.40
2022-08-22T14:45:57.951Z,30.40
2022-08-22T14:48:39.187Z,30.50
2022-08-22T14:51:18.308Z,30.50
2022-08-22T14:53:49.939Z,30.60
2022-08-22T14:56:19.431Z,30.80
2022-08-22T14:59:00.092Z,30.80
2022-08-22T15:01:29.845Z,30.90
2022-08-22T15:04:05.407Z,30.90
2022-08-22T15:06:48.074Z,30.90
2022-08-22T15:09:35.295Z,30.80
2022-08-22T15:12:03.996Z,30.90
2022-08-22T15:14:37.807Z,31.00
2022-08-22T15:17:07.388Z,30.90
2022-08-22T15:19:37.105Z,31.00
2022-08-22T15:22:07.949Z,30.90
2022-08-22T15:24:42.926Z,30.90
2022-08-22T15:27:09.948Z,30.90
2022-08-22T15:29:48.009Z,31.00
2022-08-22T15:32:19.940Z,31.00
2022-08-22T15:34:49.398Z,31.00
2022-08-22T15:37:19.158Z,31.00
2022-08-22T15:39:58.907Z,30.80
2022-08-22T15:42:31.579Z,30.70
2022-08-22T15:44:59.398Z,30.60
2022-08-22T15:47:36.254Z,30.40
2022-08-22T15:50:09.972Z,30.20
2022-08-22T15:53:04.851Z,30.00
2022-08-22T15:55:34.397Z,29.70
2022-08-22T15:58:02.575Z,29.50
2022-08-22T16:00:32.564Z,29.30
2022-08-22T16:03:17.912Z,29.10
2022-08-22T16:05:53.175Z,28.90
2022-08-22T16:08:24.441Z,28.80
2022-08-22T16:10:54.681Z,28.70
2022-08-22T16:13:27.549Z,28.70
2022-08-22T16:21:41.013Z,28.40
2022-08-22T16:24:07.687Z,28.20
2022-08-22T16:28:57.430Z,28.00
2022-08-22T16:33:51.572Z,27.80
2022-08-22T16:37:49.948Z,27.90
2022-08-22T16:40:22.694Z,27.90
2022-08-22T16:43:12.081Z,27.90
2022-08-22T16:45:45.515Z,27.90
2022-08-22T16:48:34.551Z,27.90
2022-08-22T16:51:21.267Z,27.90
2022-08-22T16:54:03.818Z,27.90
2022-08-22T16:56:44.621Z,27.90
2022-08-22T16:59:33.260Z,27.90
2022-08-22T17:02:34.249Z,27.80
2022-08-22T17:05:07.479Z,27.70
2022-08-22T17:08:06.488Z,27.70
2022-08-22T17:10:42.505Z,27.70
2022-08-22T17:13:37.017Z,27.60
2022-08-22T17:16:41.755Z,27.60
2022-08-22T17:19:41.108Z,27.60
2022-08-22T17:22:19.826Z,27.50
2022-08-22T17:25:00.593Z,27.50
2022-08-22T17:27:35.010Z,27.50
2022-08-22T17:30:28.942Z,27.40
2022-08-22T17:33:14.916Z,27.40
2022-08-22T17:35:55.895Z,27.40
2022-08-22T17:38:41.168Z,27.40
2022-08-22T17:41:28.888Z,27.30
2022-08-22T17:44:18.708Z,27.30
2022-08-22T17:47:06.328Z,27.30
2022-08-22T17:49:53.911Z,27.20
2022-08-22T17:53:18.700Z,27.20
2022-08-22T17:56:13.427Z,27.20
2022-08-22T17:59:03.012Z,27.10
2022-08-22T18:01:49.597Z,27.10
2022-08-22T18:04:29.532Z,27.10
2022-08-22T18:07:05.423Z,27.00
2022-08-22T18:09:39.271Z,27.00
2022-08-22T18:12:19.223Z,27.00
2022-08-22T18:14:49.015Z,27.00
2022-08-22T18:17:27.588Z,26.90
2022-08-22T18:20:09.442Z,26.90
2022-08-22T18:22:39.163Z,26.90
2022-08-22T18:25:08.655Z,26.80
2022-08-22T18:28:05.263Z,26.70
2022-08-22T18:30:54.708Z,26.70
2022-08-22T18:33:32.823Z,26.60
2022-08-22T18:36:10.627Z,26.60
2022-08-22T18:38:55.558Z,26.50
2022-08-22T18:41:31.388Z,26.50
2022-08-22T18:43:59.410Z,26.40
2022-08-22T18:46:38.304Z,26.40
2022-08-22T18:49:19.643Z,26.30
2022-08-22T18:52:12.779Z,26.30
2022-08-22T18:55:03.815Z,26.20
2022-08-22T18:58:08.103Z,26.20
2022-08-22T19:01:02.754Z,26.10
2022-08-22T19:03:53.933Z,26.00
2022-08-22T19:07:00.438Z,26.00
2022-08-22T19:09:51.781Z,25.90
2022-08-22T19:12:52.489Z,25.90
2022-08-22T19:15:48.369Z,25.80
2022-08-22T19:18:30.746Z,25.80
2022-08-22T19:21:37.674Z,25.70
2022-08-22T19:24:12.128Z,25.70
2022-08-22T19:26:44.763Z,25.60
2022-08-22T19:29:16.098Z,25.60
2022-08-22T19:31:48.892Z,25.50
2022-08-22T19:34:25.497Z,25.50
2022-08-22T19:37:33.751Z,25.50
2022-08-22T19:40:05.814Z,25.40
2022-08-22T19:42:35.767Z,25.40
2022-08-22T19:45:08.370Z,25.30
2022-08-22T19:47:42.103Z,25.30
2022-08-22T19:50:18.240Z,25.30
2022-08-22T19:52:51.015Z,25.30
2022-08-22T19:55:38.649Z,25.20
2022-08-22T19:58:38.100Z,25.20
2022-08-22T20:01:40.183Z,25.20
2022-08-22T20:04:33.151Z,25.10
2022-08-22T20:07:26.077Z,25.10
2022-08-22T20:10:08.613Z,25.00
2022-08-22T20:12:49.461Z,25.00
2022-08-22T20:15:24.016Z,25.00
2022-08-22T20:20:55.671Z,24.90
2022-08-22T20:23:30.486Z,24.80
2022-08-22T20:25:58.029Z,24.80
2022-08-22T20:28:40.946Z,24.70
2022-08-22T20:31:19.803Z,24.70
2022-08-22T20:33:51.267Z,24.70
2022-08-22T20:36:28.535Z,24.60
2022-08-22T20:39:08.057Z,24.60
2022-08-22T20:41:39.075Z,24.50
2022-08-22T20:44:18.553Z,24.50
2022-08-22T20:46:53.471Z,24.50
2022-08-22T20:49:26.027Z,24.50
2022-08-22T20:52:04.945Z,24.50
2022-08-22T20:54:35.704Z,24.40
2022-08-22T20:57:13.996Z,24.40
2022-08-22T20:59:44.995Z,24.40
2022-08-22T21:02:24.660Z,24.30
2022-08-22T21:05:08.560Z,24.30
2022-08-22T21:07:37.046Z,24.30
2022-08-22T21:10:44.599Z,24.30
2022-08-22T21:13:22.195Z,24.20
2022-08-22T21:15:58.307Z,24.20
2022-08-22T21:18:40.675Z,24.20
2022-08-22T21:21:17.182Z,24.10
2022-08-22T21:24:06.743Z,24.10
2022-08-22T21:26:36.506Z,24.10
2022-08-22T21:29:08.479Z,24.10
2022-08-22T21:31:48.812Z,24.10
2022-08-22T21:34:32.174Z,24.00
2022-08-22T21:37:02.394Z,23.90
2022-08-22T21:39:36.154Z,23.90
2022-08-22T21:42:02.844Z,23.90
2022-08-22T21:44:35.457Z,23.90
2022-08-22T21:47:30.156Z,23.80
2022-08-22T21:50:13.090Z,23.80
2022-08-22T21:52:56.076Z,23.80
2022-08-22T21:55:29.837Z,23.80
2022-08-22T21:58:07.866Z,23.70
2022-08-22T22:00:59.112Z,23.70
2022-08-22T22:03:38.310Z,23.70
2022-08-22T22:06:06.335Z,23.60
2022-08-22T22:08:33.902Z,23.60
2022-08-22T22:11:04.709Z,23.60
2022-08-22T22:13:35.614Z,23.50
2022-08-22T22:16:03.022Z,23.50
2022-08-22T22:18:34.554Z,23.50
2022-08-22T22:21:01.514Z,23.50
2022-08-22T22:23:28.879Z,23.40
2022-08-22T22:25:57.782Z,23.40
2022-08-22T22:28:36.447Z,23.40
2022-08-22T22:31:03.650Z,23.40
2022-08-22T22:33:33.669Z,23.30
2022-08-22T22:36:11.309Z,23.30
2022-08-22T22:38:39.972Z,23.20
2022-08-22T22:41:07.109Z,23.20
2022-08-22T22:43:34.089Z,23.10
2022-08-22T22:46:00.809Z,23.10
2022-08-22T22:48:27.667Z,23.10
2022-08-22T22:50:54.966Z,23.10
2022-08-22T22:53:33.779Z,23.00
2022-08-22T22:56:09.288Z,23.00
2022-08-22T22:58:37.260Z,23.00
2022-08-22T23:01:08.647Z,22.90
2022-08-22T23:03:35.436Z,22.90
2022-08-22T23:06:02.171Z,22.80
2022-08-22T23:08:28.958Z,22.80
2022-08-22T23:10:55.950Z,22.80
2022-08-22T23:13:22.777Z,22.70
2022-08-22T23:15:49.514Z,22.70
2022-08-22T23:18:16.367Z,22.70
2022-08-22T23:20:43.099Z,22.60
2022-08-22T23:23:09.798Z,22.60
2022-08-22T23:25:36.566Z,22.60
2022-08-22T23:28:03.762Z,22.50
2022-08-22T23:30:31.296Z,22.50
2022-08-22T23:32:58.088Z,22.50
2022-08-22T23:35:25.052Z,22.50
2022-08-22T23:37:52.678Z,22.50
2022-08-22T23:40:19.471Z,22.40
2022-08-22T23:42:46.221Z,22.40
2022-08-22T23:45:13.042Z,22.40
2022-08-22T23:47:39.943Z,22.30
2022-08-22T23:50:07.118Z,22.30
2022-08-22T23:52:34.291Z,22.30
2022-08-22T23:55:00.984Z,22.20
2022-08-22T23:57:29.509Z,22.20
2022-08-22T23:59:57.617Z,22.20
